sensor_id;sensor_type;location;lat;lon;timestamp;pressure;altitude;pressure_sealevel;temperature;humidity
13434;BME280;6789;47.678;9.158;2023-01-27T00:04:40;96880.63;;;0.71;92.05
13434;BME280;6789;47.678;9.158;2023-01-27T00:09:32;96880.63;;;0.71;91.64
13434;BME280;6789;47.678;9.158;2023-01-27T00:14:23;96882.84;;;0.66;91.56
13434;BME280;6789;47.678;9.158;2023-01-27T00:19:15;96881.09;;;0.74;92.53
13434;BME280;6789;47.678;9.158;2023-01-27T00:24:12;96869.34;;;0.80;91.88
13434;BME280;6789;47.678;9.158;2023-01-27T00:29:22;96874.50;;;0.80;92.45
13434;BME280;6789;47.678;9.158;2023-01-27T00:34:14;96866.25;;;0.68;92.92
13434;BME280;6789;47.678;9.158;2023-01-27T00:39:08;96871.94;;;0.88;93.02
13434;BME280;6789;47.678;9.158;2023-01-27T00:44:01;96864.03;;;0.97;92.17
13434;BME280;6789;47.678;9.158;2023-01-27T00:48:55;96854.50;;;0.82;93.05
13434;BME280;6789;47.678;9.158;2023-01-27T00:53:47;96865.00;;;0.80;93.97
13434;BME280;6789;47.678;9.158;2023-01-27T00:58:39;96858.84;;;0.97;93.09
13434;BME280;6789;47.678;9.158;2023-01-27T01:03:33;96863.22;;;0.89;93.99
13434;BME280;6789;47.678;9.158;2023-01-27T01:08:26;96861.59;;;0.88;94.19
13434;BME280;6789;47.678;9.158;2023-01-27T01:13:18;96867.59;;;0.80;93.71
13434;BME280;6789;47.678;9.158;2023-01-27T01:18:13;96872.25;;;0.93;92.98
13434;BME280;6789;47.678;9.158;2023-01-27T01:23:05;96869.34;;;0.80;93.23
13434;BME280;6789;47.678;9.158;2023-01-27T01:27:57;96863.53;;;0.86;93.87
13434;BME280;6789;47.678;9.158;2023-01-27T01:32:49;96866.75;;;0.80;94.54
13434;BME280;6789;47.678;9.158;2023-01-27T01:37:41;96865.59;;;0.74;95.09
13434;BME280;6789;47.678;9.158;2023-01-27T01:47:43;96855.78;;;0.78;95.41
13434;BME280;6789;47.678;9.158;2023-01-27T01:52:35;96845.91;;;0.50;96.48
13434;BME280;6789;47.678;9.158;2023-01-27T01:57:33;96850.94;;;0.67;96.61
13434;BME280;6789;47.678;9.158;2023-01-27T02:02:28;96839.66;;;0.52;96.91
13434;BME280;6789;47.678;9.158;2023-01-27T02:07:34;96841.25;;;0.53;97.63
13434;BME280;6789;47.678;9.158;2023-01-27T02:12:28;96834.16;;;0.47;98.79
13434;BME280;6789;47.678;9.158;2023-01-27T02:17:20;96832.72;;;0.45;99.55
13434;BME280;6789;47.678;9.158;2023-01-27T02:22:23;96832.88;;;0.43;98.82
13434;BME280;6789;47.678;9.158;2023-01-27T02:27:18;96830.91;;;0.13;99.78
13434;BME280;6789;47.678;9.158;2023-01-27T02:32:25;96826.72;;;0.20;100.00
13434;BME280;6789;47.678;9.158;2023-01-27T02:37:19;96829.94;;;0.22;100.00
13434;BME280;6789;47.678;9.158;2023-01-27T02:42:14;96826.41;;;0.23;100.00
13434;BME280;6789;47.678;9.158;2023-01-27T02:47:07;96830.91;;;0.21;100.00
13434;BME280;6789;47.678;9.158;2023-01-27T02:51:59;96825.91;;;0.20;100.00
13434;BME280;6789;47.678;9.158;2023-01-27T02:56:50;96822.06;;;0.24;100.00
13434;BME280;6789;47.678;9.158;2023-01-27T03:01:42;96814.47;;;0.14;100.00
13434;BME280;6789;47.678;9.158;2023-01-27T03:06:35;96809.44;;;0.13;100.00
13434;BME280;6789;47.678;9.158;2023-01-27T03:11:26;96812.38;;;0.18;100.00
13434;BME280;6789;47.678;9.158;2023-01-27T03:16:37;96811.22;;;0.12;100.00
13434;BME280;6789;47.678;9.158;2023-01-27T03:21:47;96811.41;;;0.11;100.00
13434;BME280;6789;47.678;9.158;2023-01-27T03:26:41;96810.56;;;0.10;100.00
13434;BME280;6789;47.678;9.158;2023-01-27T03:31:33;96819.28;;;0.09;100.00
13434;BME280;6789;47.678;9.158;2023-01-27T03:36:25;96824.72;;;-0.02;100.00
13434;BME280;6789;47.678;9.158;2023-01-27T03:41:35;96830.50;;;-0.07;100.00
13434;BME280;6789;47.678;9.158;2023-01-27T03:46:45;96825.53;;;0.07;100.00
13434;BME280;6789;47.678;9.158;2023-01-27T03:51:37;96826.00;;;-0.05;100.00
13434;BME280;6789;47.678;9.158;2023-01-27T03:56:29;96827.13;;;-0.08;100.00
13434;BME280;6789;47.678;9.158;2023-01-27T04:01:23;96824.13;;;0.12;100.00
13434;BME280;6789;47.678;9.158;2023-01-27T04:06:19;96811.72;;;0.00;100.00
13434;BME280;6789;47.678;9.158;2023-01-27T04:11:30;96809.44;;;0.13;100.00
13434;BME280;6789;47.678;9.158;2023-01-27T04:16:40;96817.16;;;-0.03;100.00
13434;BME280;6789;47.678;9.158;2023-01-27T04:21:33;96812.47;;;-0.07;100.00
13434;BME280;6789;47.678;9.158;2023-01-27T04:26:25;96811.03;;;-0.02;100.00
13434;BME280;6789;47.678;9.158;2023-01-27T04:31:17;96819.22;;;-0.22;100.00
13434;BME280;6789;47.678;9.158;2023-01-27T04:36:10;96829.50;;;-0.22;100.00
13434;BME280;6789;47.678;9.158;2023-01-27T04:41:03;96816.75;;;-0.24;100.00
13434;BME280;6789;47.678;9.158;2023-01-27T04:45:55;96799.59;;;-0.07;100.00
13434;BME280;6789;47.678;9.158;2023-01-27T04:50:47;96804.25;;;-0.19;100.00
13434;BME280;6789;47.678;9.158;2023-01-27T04:55:40;96800.53;;;-0.08;100.00
13434;BME280;6789;47.678;9.158;2023-01-27T05:00:33;96810.91;;;0.07;100.00
13434;BME280;6789;47.678;9.158;2023-01-27T05:05:39;96814.13;;;0.01;100.00
13434;BME280;6789;47.678;9.158;2023-01-27T05:10:45;96809.44;;;-0.03;100.00
13434;BME280;6789;47.678;9.158;2023-01-27T05:16:11;96813.44;;;-0.08;100.00
13434;BME280;6789;47.678;9.158;2023-01-27T05:21:21;96822.47;;;0.03;100.00
13434;BME280;6789;47.678;9.158;2023-01-27T05:26:27;96812.97;;;-0.04;100.00
13434;BME280;6789;47.678;9.158;2023-01-27T05:31:33;96812.81;;;-0.03;100.00
13434;BME280;6789;47.678;9.158;2023-01-27T05:36:39;96797.53;;;0.04;100.00
13434;BME280;6789;47.678;9.158;2023-01-27T05:41:38;96806.84;;;-0.03;100.00
13434;BME280;6789;47.678;9.158;2023-01-27T05:46:32;96810.38;;;-0.04;100.00
13434;BME280;6789;47.678;9.158;2023-01-27T05:51:29;96814.13;;;0.01;100.00
13434;BME280;6789;47.678;9.158;2023-01-27T05:56:35;96821.72;;;0.11;100.00
13434;BME280;6789;47.678;9.158;2023-01-27T06:01:41;96831.81;;;0.04;100.00
13434;BME280;6789;47.678;9.158;2023-01-27T06:06:38;96835.38;;;0.11;100.00
13434;BME280;6789;47.678;9.158;2023-01-27T06:11:38;96835.38;;;0.11;100.00
13434;BME280;6789;47.678;9.158;2023-01-27T06:16:45;96843.50;;;0.32;100.00
13434;BME280;6789;47.678;9.158;2023-01-27T06:21:51;96854.09;;;0.13;100.00
13434;BME280;6789;47.678;9.158;2023-01-27T06:26:57;96870.53;;;0.28;100.00
13434;BME280;6789;47.678;9.158;2023-01-27T06:32:03;96881.28;;;0.08;100.00
13434;BME280;6789;47.678;9.158;2023-01-27T06:37:09;96870.97;;;0.08;100.00
13434;BME280;6789;47.678;9.158;2023-01-27T06:42:15;96857.13;;;0.09;100.00
13434;BME280;6789;47.678;9.158;2023-01-27T06:47:09;96874.00;;;0.03;100.00
13434;BME280;6789;47.678;9.158;2023-01-27T06:52:14;96883.56;;;0.11;100.00
13434;BME280;6789;47.678;9.158;2023-01-27T06:57:21;96880.78;;;0.04;100.00
13434;BME280;6789;47.678;9.158;2023-01-27T07:02:27;96881.13;;;0.01;100.00
13434;BME280;6789;47.678;9.158;2023-01-27T07:07:33;96886.44;;;0.00;100.00
13434;BME280;6789;47.678;9.158;2023-01-27T07:12:43;96885.94;;;-0.03;100.00
13434;BME280;6789;47.678;9.158;2023-01-27T07:17:49;96895.00;;;0.16;100.00
13434;BME280;6789;47.678;9.158;2023-01-27T07:23:00;96903.03;;;0.05;100.00
13434;BME280;6789;47.678;9.158;2023-01-27T07:28:06;96911.19;;;-0.07;100.00
13434;BME280;6789;47.678;9.158;2023-01-27T07:33:12;96902.97;;;-0.03;100.00
13434;BME280;6789;47.678;9.158;2023-01-27T07:38:20;96905.25;;;0.00;100.00
13434;BME280;6789;47.678;9.158;2023-01-27T07:43:26;96909.09;;;-0.11;100.00
13434;BME280;6789;47.678;9.158;2023-01-27T07:48:36;96913.94;;;-0.01;100.00
13434;BME280;6789;47.678;9.158;2023-01-27T07:53:42;96922.06;;;0.12;100.00
13434;BME280;6789;47.678;9.158;2023-01-27T07:58:44;96923.25;;;-0.07;100.00
13434;BME280;6789;47.678;9.158;2023-01-27T08:03:50;96918.44;;;-0.10;100.00
13434;BME280;6789;47.678;9.158;2023-01-27T08:08:56;96919.00;;;0.09;100.00
13434;BME280;6789;47.678;9.158;2023-01-27T08:14:02;96925.22;;;-0.02;100.00
13434;BME280;6789;47.678;9.158;2023-01-27T08:19:07;96927.50;;;0.01;100.00
13434;BME280;6789;47.678;9.158;2023-01-27T08:24:14;96926.41;;;0.12;100.00
13434;BME280;6789;47.678;9.158;2023-01-27T08:29:20;96924.22;;;0.33;100.00
13434;BME280;6789;47.678;9.158;2023-01-27T08:34:26;96924.41;;;0.39;98.25
13434;BME280;6789;47.678;9.158;2023-01-27T08:39:33;96932.81;;;0.49;96.10
13434;BME280;6789;47.678;9.158;2023-01-27T08:44:40;96938.75;;;0.42;95.48
13434;BME280;6789;47.678;9.158;2023-01-27T08:49:57;96930.59;;;0.62;95.64
13434;BME280;6789;47.678;9.158;2023-01-27T08:55:05;96939.13;;;0.63;94.73
13434;BME280;6789;47.678;9.158;2023-01-27T09:00:11;96941.78;;;0.86;94.19
13434;BME280;6789;47.678;9.158;2023-01-27T09:05:18;96935.16;;;1.08;91.95
13434;BME280;6789;47.678;9.158;2023-01-27T09:10:25;96943.84;;;0.75;91.33
13434;BME280;6789;47.678;9.158;2023-01-27T09:15:31;96943.84;;;0.91;91.19
13434;BME280;6789;47.678;9.158;2023-01-27T09:20:38;96944.97;;;0.88;90.14
13434;BME280;6789;47.678;9.158;2023-01-27T09:25:44;96951.00;;;1.21;88.62
13434;BME280;6789;47.678;9.158;2023-01-27T09:30:57;96943.88;;;1.07;89.26
13434;BME280;6789;47.678;9.158;2023-01-27T09:36:17;96958.06;;;1.35;88.23
13434;BME280;6789;47.678;9.158;2023-01-27T09:41:46;96957.75;;;1.53;86.93
13434;BME280;6789;47.678;9.158;2023-01-27T09:47:35;96961.31;;;1.37;85.75
13434;BME280;6789;47.678;9.158;2023-01-27T10:05:01;96957.91;;;1.20;85.87
13434;BME280;6789;47.678;9.158;2023-01-27T10:22:07;96959.69;;;1.28;87.95
13434;BME280;6789;47.678;9.158;2023-01-27T10:27:47;96966.16;;;1.24;88.02
13434;BME280;6789;47.678;9.158;2023-01-27T10:33:20;96965.81;;;1.11;87.67
13434;BME280;6789;47.678;9.158;2023-01-27T10:38:53;96961.63;;;1.10;88.49
13434;BME280;6789;47.678;9.158;2023-01-27T10:50:53;96956.47;;;1.26;87.66
13434;BME280;6789;47.678;9.158;2023-01-27T10:56:39;96952.91;;;1.35;87.57
13434;BME280;6789;47.678;9.158;2023-01-27T11:02:33;96951.59;;;1.46;85.89
13434;BME280;6789;47.678;9.158;2023-01-27T11:08:46;96964.53;;;1.23;87.58
13434;BME280;6789;47.678;9.158;2023-01-27T11:14:29;96965.50;;;1.14;87.77
13434;BME280;6789;47.678;9.158;2023-01-27T11:25:28;96981.25;;;0.79;91.10
13434;BME280;6789;47.678;9.158;2023-01-27T11:37:41;96979.59;;;0.62;93.30
13434;BME280;6789;47.678;9.158;2023-01-27T11:43:27;96971.88;;;0.70;92.19
13434;BME280;6789;47.678;9.158;2023-01-27T11:48:56;96969.91;;;0.56;91.77
13434;BME280;6789;47.678;9.158;2023-01-27T12:05:08;96965.91;;;0.69;89.95
13434;BME280;6789;47.678;9.158;2023-01-27T12:16:22;96950.66;;;1.00;89.82
13434;BME280;6789;47.678;9.158;2023-01-27T12:22:05;96961.47;;;1.11;87.39
13434;BME280;6789;47.678;9.158;2023-01-27T12:27:39;96950.31;;;1.11;87.59
13434;BME280;6789;47.678;9.158;2023-01-27T12:32:53;96944.97;;;0.88;88.14
13434;BME280;6789;47.678;9.158;2023-01-27T12:43:19;96943.19;;;0.73;87.41
13434;BME280;6789;47.678;9.158;2023-01-27T12:48:48;96932.88;;;0.81;87.26
13434;BME280;6789;47.678;9.158;2023-01-27T12:54:24;96935.63;;;0.79;87.75
13434;BME280;6789;47.678;9.158;2023-01-27T12:59:33;96933.53;;;0.83;88.64
13434;BME280;6789;47.678;9.158;2023-01-27T13:04:41;96927.88;;;0.87;88.82
13434;BME280;6789;47.678;9.158;2023-01-27T13:10:15;96941.28;;;0.83;89.56
13434;BME280;6789;47.678;9.158;2023-01-27T13:15:25;96937.22;;;0.88;89.54
13434;BME280;6789;47.678;9.158;2023-01-27T13:20:49;96949.28;;;0.72;89.84
13434;BME280;6789;47.678;9.158;2023-01-27T13:26:09;96936.06;;;0.67;90.65
13434;BME280;6789;47.678;9.158;2023-01-27T13:31:55;96939.63;;;0.66;90.67
13434;BME280;6789;47.678;9.158;2023-01-27T13:37:58;96938.69;;;0.83;88.52
13434;BME280;6789;47.678;9.158;2023-01-27T13:43:42;96945.97;;;0.95;89.15
13434;BME280;6789;47.678;9.158;2023-01-27T13:49:15;96945.16;;;1.11;87.72
13434;BME280;6789;47.678;9.158;2023-01-27T13:54:22;96954.19;;;0.83;88.30
13434;BME280;6789;47.678;9.158;2023-01-27T14:05:41;96945.47;;;1.00;88.01
13434;BME280;6789;47.678;9.158;2023-01-27T14:11:31;96958.69;;;0.81;88.31
13434;BME280;6789;47.678;9.158;2023-01-27T14:39:59;96949.84;;;0.91;88.57
13434;BME280;6789;47.678;9.158;2023-01-27T14:45:36;96959.53;;;0.97;88.51
13434;BME280;6789;47.678;9.158;2023-01-27T14:56:35;96964.00;;;0.87;87.55
13434;BME280;6789;47.678;9.158;2023-01-27T15:13:31;96978.22;;;1.07;87.53
13434;BME280;6789;47.678;9.158;2023-01-27T15:19:27;96976.13;;;1.11;87.32
13434;BME280;6789;47.678;9.158;2023-01-27T15:30:33;96995.53;;;1.15;88.21
13434;BME280;6789;47.678;9.158;2023-01-27T15:35:43;96999.53;;;1.09;88.37
13434;BME280;6789;47.678;9.158;2023-01-27T15:41:00;97004.88;;;1.24;87.51
13434;BME280;6789;47.678;9.158;2023-01-27T15:46:33;97007.13;;;1.19;87.04
13434;BME280;6789;47.678;9.158;2023-01-27T15:51:40;97006.31;;;1.18;86.97
13434;BME280;6789;47.678;9.158;2023-01-27T15:56:50;97018.44;;;1.18;87.51
13434;BME280;6789;47.678;9.158;2023-01-27T16:02:19;97025.03;;;1.04;87.66
13434;BME280;6789;47.678;9.158;2023-01-27T16:07:34;97027.25;;;0.99;89.15
13434;BME280;6789;47.678;9.158;2023-01-27T16:12:43;97031.44;;;0.84;90.14
13434;BME280;6789;47.678;9.158;2023-01-27T16:23:43;97045.41;;;0.74;92.87
13434;BME280;6789;47.678;9.158;2023-01-27T16:29:28;97044.47;;;0.75;93.56
13434;BME280;6789;47.678;9.158;2023-01-27T16:34:49;97045.75;;;0.79;95.57
13434;BME280;6789;47.678;9.158;2023-01-27T16:40:18;97050.88;;;0.63;96.24
13434;BME280;6789;47.678;9.158;2023-01-27T16:45:44;97044.72;;;0.56;97.52
13434;BME280;6789;47.678;9.158;2023-01-27T16:51:16;97046.34;;;0.57;98.12
13434;BME280;6789;47.678;9.158;2023-01-27T16:56:32;97046.91;;;0.84;97.64
13434;BME280;6789;47.678;9.158;2023-01-27T17:01:45;97056.06;;;0.71;97.85
13434;BME280;6789;47.678;9.158;2023-01-27T17:07:09;97060.94;;;0.82;96.37
13434;BME280;6789;47.678;9.158;2023-01-27T17:12:43;97076.44;;;0.82;95.77
13434;BME280;6789;47.678;9.158;2023-01-27T17:17:41;97064.50;;;0.89;94.73
13434;BME280;6789;47.678;9.158;2023-01-27T17:22:48;97070.94;;;0.77;94.16
13434;BME280;6789;47.678;9.158;2023-01-27T17:28:02;97079.94;;;0.73;94.01
13434;BME280;6789;47.678;9.158;2023-01-27T17:33:04;97083.47;;;0.72;94.30
13434;BME280;6789;47.678;9.158;2023-01-27T17:38:18;97072.22;;;0.81;94.15
13434;BME280;6789;47.678;9.158;2023-01-27T17:43:38;97080.59;;;0.75;93.06
13434;BME280;6789;47.678;9.158;2023-01-27T17:49:13;97078.56;;;0.94;91.92
13434;BME280;6789;47.678;9.158;2023-01-27T17:54:39;97094.16;;;0.85;92.08
13434;BME280;6789;47.678;9.158;2023-01-27T18:00:26;97088.63;;;0.72;92.85
13434;BME280;6789;47.678;9.158;2023-01-27T18:05:36;97087.69;;;0.81;93.27
13434;BME280;6789;47.678;9.158;2023-01-27T18:10:42;97085.28;;;0.79;93.44
13434;BME280;6789;47.678;9.158;2023-01-27T18:26:17;97115.13;;;0.82;93.03
13434;BME280;6789;47.678;9.158;2023-01-27T18:31:28;97114.75;;;0.69;93.59
13434;BME280;6789;47.678;9.158;2023-01-27T18:36:36;97123.94;;;0.71;93.59
13434;BME280;6789;47.678;9.158;2023-01-27T18:41:46;97131.41;;;0.82;93.16
13434;BME280;6789;47.678;9.158;2023-01-27T18:52:23;97126.69;;;0.70;92.93
13434;BME280;6789;47.678;9.158;2023-01-27T18:57:29;97129.16;;;0.79;92.43
13434;BME280;6789;47.678;9.158;2023-01-27T19:02:36;97132.13;;;0.67;92.81
13434;BME280;6789;47.678;9.158;2023-01-27T19:07:44;97129.59;;;0.75;92.10
13434;BME280;6789;47.678;9.158;2023-01-27T19:12:51;97134.38;;;0.62;92.89
13434;BME280;6789;47.678;9.158;2023-01-27T19:18:01;97145.53;;;0.70;92.71
13434;BME280;6789;47.678;9.158;2023-01-27T19:23:14;97136.06;;;0.71;92.26
13434;BME280;6789;47.678;9.158;2023-01-27T19:28:29;97146.59;;;0.85;92.42
13434;BME280;6789;47.678;9.158;2023-01-27T19:33:37;97150.25;;;0.75;93.11
13434;BME280;6789;47.678;9.158;2023-01-27T19:38:31;97147.47;;;0.68;92.32
13434;BME280;6789;47.678;9.158;2023-01-27T19:43:37;97150.69;;;0.70;92.34
13434;BME280;6789;47.678;9.158;2023-01-27T19:48:43;97150.88;;;0.69;92.17
13434;BME280;6789;47.678;9.158;2023-01-27T19:53:52;97154.28;;;0.77;92.20
13434;BME280;6789;47.678;9.158;2023-01-27T19:58:59;97154.91;;;0.71;92.30
13434;BME280;6789;47.678;9.158;2023-01-27T20:04:04;97150.53;;;0.72;91.61
13434;BME280;6789;47.678;9.158;2023-01-27T20:09:10;97158.25;;;0.64;92.39
13434;BME280;6789;47.678;9.158;2023-01-27T20:14:19;97154.78;;;0.81;91.01
13434;BME280;6789;47.678;9.158;2023-01-27T20:19:26;97152.16;;;0.73;91.41
13434;BME280;6789;47.678;9.158;2023-01-27T20:24:33;97146.50;;;0.69;91.34
13434;BME280;6789;47.678;9.158;2023-01-27T20:29:39;97156.63;;;0.63;92.57
13434;BME280;6789;47.678;9.158;2023-01-27T20:34:50;97157.25;;;0.57;92.20
13434;BME280;6789;47.678;9.158;2023-01-27T20:39:57;97158.09;;;0.66;92.32
13434;BME280;6789;47.678;9.158;2023-01-27T20:45:04;97159.28;;;0.71;92.37
13434;BME280;6789;47.678;9.158;2023-01-27T20:50:11;97158.69;;;0.85;92.21
13434;BME280;6789;47.678;9.158;2023-01-27T20:55:46;97166.25;;;0.78;92.17
13434;BME280;6789;47.678;9.158;2023-01-27T21:00:52;97169.03;;;0.93;91.92
13434;BME280;6789;47.678;9.158;2023-01-27T21:05:59;97171.28;;;0.88;92.11
13434;BME280;6789;47.678;9.158;2023-01-27T21:11:07;97175.03;;;0.68;92.45
13434;BME280;6789;47.678;9.158;2023-01-27T21:16:19;97169.59;;;0.71;92.83
13434;BME280;6789;47.678;9.158;2023-01-27T21:21:29;97160.97;;;0.63;93.96
13434;BME280;6789;47.678;9.158;2023-01-27T21:26:35;97156.81;;;0.62;94.17
13434;BME280;6789;47.678;9.158;2023-01-27T21:31:43;97158.78;;;0.75;92.39
13434;BME280;6789;47.678;9.158;2023-01-27T21:36:49;97162.50;;;0.73;92.83
13434;BME280;6789;47.678;9.158;2023-01-27T21:41:54;97156.03;;;0.69;93.76
13434;BME280;6789;47.678;9.158;2023-01-27T21:47:01;97159.00;;;0.82;92.75
13434;BME280;6789;47.678;9.158;2023-01-27T21:52:10;97157.44;;;0.97;92.19
13434;BME280;6789;47.678;9.158;2023-01-27T21:57:17;97166.41;;;0.77;93.60
13434;BME280;6789;47.678;9.158;2023-01-27T22:02:23;97161.75;;;0.88;92.77
13434;BME280;6789;47.678;9.158;2023-01-27T22:07:29;97164.63;;;0.77;92.88
13434;BME280;6789;47.678;9.158;2023-01-27T22:12:43;97165.13;;;0.81;93.61
13434;BME280;6789;47.678;9.158;2023-01-27T22:17:48;97168.44;;;0.99;91.36
13434;BME280;6789;47.678;9.158;2023-01-27T22:22:54;97172.09;;;0.88;91.98
13434;BME280;6789;47.678;9.158;2023-01-27T22:28:01;97176.13;;;0.91;93.24
13434;BME280;6789;47.678;9.158;2023-01-27T22:33:07;97170.00;;;0.92;93.68
13434;BME280;6789;47.678;9.158;2023-01-27T22:38:16;97179.38;;;0.93;93.33
13434;BME280;6789;47.678;9.158;2023-01-27T22:43:24;97179.06;;;0.96;94.25
13434;BME280;6789;47.678;9.158;2023-01-27T22:48:35;97168.97;;;1.10;93.49
13434;BME280;6789;47.678;9.158;2023-01-27T22:53:42;97166.75;;;0.82;94.91
13434;BME280;6789;47.678;9.158;2023-01-27T22:58:48;97168.75;;;0.96;95.31
13434;BME280;6789;47.678;9.158;2023-01-27T23:03:54;97172.06;;;0.80;95.28
13434;BME280;6789;47.678;9.158;2023-01-27T23:09:00;97165.84;;;0.66;96.04
13434;BME280;6789;47.678;9.158;2023-01-27T23:14:06;97179.50;;;0.58;96.13
13434;BME280;6789;47.678;9.158;2023-01-27T23:19:12;97173.75;;;0.64;96.49
13434;BME280;6789;47.678;9.158;2023-01-27T23:24:20;97185.97;;;0.62;96.62
13434;BME280;6789;47.678;9.158;2023-01-27T23:29:26;97180.31;;;0.59;97.23
13434;BME280;6789;47.678;9.158;2023-01-27T23:34:32;97182.13;;;0.66;96.48
13434;BME280;6789;47.678;9.158;2023-01-27T23:39:38;97178.56;;;0.67;97.46
13434;BME280;6789;47.678;9.158;2023-01-27T23:44:51;97182.88;;;0.59;96.72
13434;BME280;6789;47.678;9.158;2023-01-27T23:49:57;97183.97;;;0.73;96.68
13434;BME280;6789;47.678;9.158;2023-01-27T23:55:04;97185.53;;;0.67;96.00
